KERV

Kerrville Municipal / Louis Schreiner Field Airport

Kerrville, Texas, USA
METAR KERV 210335Z AUTO 00000KT 10SM CLR 26/21 A3006 RMK AO2 T02610206
Observed Flight Rules
Aug-21 @ 03:35 UTC (35 minutes ago) Visual Flight Rules
Visibility Clouds
10 miles
  • Clear skies
Temperatures Readings
Current 26°C / 79°F
Dewpoint 21°C / 70°F
Humidity 74%
Altimeter 30.06" Hg
Pressure 1018 hPa
Elevation 510
METAR KERV 210335Z AUTO 00000KT 10SM CLR 26/21 A3006 RMK AO2 T02610206
Observed Flight Rules
Aug-21 @ 03:35 UTC
(35 minutes ago)
VFR
Clouds
  • Clear skies
Temperature Dewpoint
26°C / 79°F 21°C / 70°F
Humidity Altimeter Pressure
74% 30.06" Hg 1018 hPa